Time;durP1;ratioP1;P1;durP2;ratioP2;P2;SDS_P1;SDS_P2;PMS_P1;PMS_P2;Temp;Humidity;BMP_temperature;BMP_pressure;BME280_temperature;BME280_humidity;BME280_pressure;Samples;Min_cycle;Max_cycle;Signal;HPM_P1;HPM_P2
2020/12/19 00:00:38;;;;;;;50.25;22.08;;;;;;;1.00;99.03;101614.75;4933723;28;20052;-52
2020/12/19 00:03:05;;;;;;;43.20;21.27;;;;;;;0.94;99.33;101604.19;4936640;28;20043;-52
2020/12/19 00:05:31;;;;;;;42.83;20.58;;;;;;;0.82;99.43;101607.38;4935310;28;20052;-49
2020/12/19 00:07:58;;;;;;;49.33;20.77;;;;;;;0.72;99.56;101610.81;4934524;28;20102;-51
2020/12/19 00:10:24;;;;;;;46.97;21.00;;;;;;;0.60;99.21;101603.16;4935693;28;20047;-51
2020/12/19 00:12:51;;;;;;;48.35;21.20;;;;;;;0.43;100.00;101605.97;4935141;28;20044;-50
2020/12/19 00:15:18;;;;;;;48.80;22.83;;;;;;;0.65;100.00;101601.91;4932421;28;20118;-51
2020/12/19 00:17:45;;;;;;;51.40;22.55;;;;;;;0.47;100.00;101607.97;4934183;28;20044;-52
2020/12/19 00:20:12;;;;;;;48.08;21.58;;;;;;;0.63;100.00;101603.41;4937304;28;20055;-50
2020/12/19 00:22:38;;;;;;;52.47;23.42;;;;;;;0.57;100.00;101602.03;4933479;28;20481;-49
2020/12/19 00:25:05;;;;;;;49.92;22.02;;;;;;;0.58;100.00;101597.09;4936274;28;20143;-54
2020/12/19 00:27:31;;;;;;;51.35;21.35;;;;;;;0.55;100.00;101594.34;4934826;28;20051;-50
2020/12/19 00:29:57;;;;;;;44.45;20.33;;;;;;;0.62;100.00;101594.09;4935375;28;20419;-50
2020/12/19 00:32:24;;;;;;;56.63;22.13;;;;;;;0.60;100.00;101595.63;4935983;28;20047;-50
2020/12/19 00:34:54;;;;;;;46.65;20.88;;;;;;;0.51;100.00;101589.84;4934559;28;20111;-53
2020/12/19 00:37:22;;;;;;;52.25;22.33;;;;;;;0.35;100.00;101584.31;4936337;28;20055;-48
2020/12/19 00:39:48;;;;;;;52.33;21.45;;;;;;;0.52;100.00;101584.03;4930640;28;20091;-53
2020/12/19 00:42:15;;;;;;;47.78;21.00;;;;;;;0.63;100.00;101587.41;4936725;28;20122;-53
2020/12/19 00:44:41;;;;;;;43.05;20.13;;;;;;;0.67;99.78;101581.84;4933988;28;20052;-50
2020/12/19 00:47:07;;;;;;;53.45;21.17;;;;;;;0.71;99.65;101582.22;4935814;28;20055;-49
2020/12/19 00:49:34;;;;;;;50.20;21.48;;;;;;;0.40;100.00;101578.88;4934261;28;20107;-53
2020/12/19 00:52:00;;;;;;;51.33;20.85;;;;;;;0.60;100.00;101582.09;4933505;28;20111;-52
2020/12/19 00:54:27;;;;;;;52.33;21.13;;;;;;;0.54;100.00;101582.50;4935316;28;20098;-54
2020/12/19 00:56:53;;;;;;;50.90;20.63;;;;;;;0.39;100.00;101564.53;4934060;28;20470;-56
2020/12/19 00:59:19;;;;;;;43.95;20.85;;;;;;;0.52;100.00;101570.56;4936496;28;20533;-55
2020/12/19 01:01:46;;;;;;;49.25;22.77;;;;;;;0.32;100.00;101566.41;4933888;28;20055;-50
2020/12/19 01:04:13;;;;;;;50.17;20.63;;;;;;;0.29;100.00;101566.19;4936323;28;20134;-50
2020/12/19 01:06:40;;;;;;;46.08;20.70;;;;;;;0.41;100.00;101567.16;4933649;28;20115;-48
2020/12/19 01:09:08;;;;;;;50.72;21.25;;;;;;;0.32;100.00;101558.84;4935422;28;20063;-49
2020/12/19 01:11:36;;;;;;;47.70;21.23;;;;;;;0.38;100.00;101561.88;4933908;28;20048;-52
2020/12/19 01:14:04;;;;;;;47.35;21.38;;;;;;;0.43;100.00;101565.66;4935067;28;20047;-53
2020/12/19 01:16:31;;;;;;;50.15;20.83;;;;;;;0.55;100.00;101564.09;4934139;28;20521;-53
2020/12/19 01:18:59;;;;;;;48.50;21.25;;;;;;;0.51;100.00;101557.06;4934298;28;20052;-52
2020/12/19 01:21:28;;;;;;;55.20;22.55;;;;;;;0.53;100.00;101550.50;4934798;28;20839;-54
2020/12/19 01:23:55;;;;;;;52.25;20.45;;;;;;;0.43;100.00;101558.97;4933802;28;20048;-50
2020/12/19 01:26:22;;;;;;;47.45;21.05;;;;;;;0.35;100.00;101560.00;4935557;28;20059;-52
2020/12/19 01:28:50;;;;;;;55.60;20.85;;;;;;;0.35;100.00;101556.59;4930500;28;20074;-50
2020/12/19 01:31:18;;;;;;;51.72;21.77;;;;;;;0.14;100.00;101558.25;4930748;28;20043;-49
2020/12/19 01:33:46;;;;;;;47.55;19.15;;;;;;;0.28;100.00;101557.75;4933272;28;20130;-54
2020/12/19 01:36:19;;;;;;;50.80;21.65;;;;;;;0.25;100.00;101554.97;4935626;28;20083;-53
2020/12/19 01:38:45;;;;;;;53.50;21.10;;;;;;;0.35;100.00;101561.63;4932987;28;20106;-47
2020/12/19 01:41:13;;;;;;;53.03;21.10;;;;;;;0.33;100.00;101558.13;4935734;28;20094;-52
2020/12/19 01:43:44;;;;;;;46.33;20.25;;;;;;;0.12;100.00;101560.66;4932929;28;20044;-49
2020/12/19 01:46:12;;;;;;;55.08;22.10;;;;;;;0.35;100.00;101557.47;4935833;28;20059;-49
2020/12/19 01:48:39;;;;;;;46.15;19.00;;;;;;;0.11;100.00;101558.91;4931716;28;20067;-51
2020/12/19 01:51:05;;;;;;;47.47;20.23;;;;;;;0.28;100.00;101542.63;4934837;28;20052;-50
2020/12/19 01:53:32;;;;;;;49.28;21.35;;;;;;;0.32;100.00;101546.25;4933575;28;20824;-51
2020/12/19 01:55:59;;;;;;;45.10;19.75;;;;;;;0.25;100.00;101543.25;4934097;28;20051;-49
2020/12/19 01:58:26;;;;;;;44.00;18.80;;;;;;;0.08;100.00;101540.13;4933966;28;20126;-48
2020/12/19 02:00:56;;;;;;;53.28;20.40;;;;;;;0.25;100.00;101535.72;4933538;28;20492;-50
2020/12/19 02:03:34;;;;;;;51.53;20.13;;;;;;;0.28;100.00;101540.13;4932984;28;20663;-49
2020/12/19 02:06:05;;;;;;;47.53;19.23;;;;;;;0.31;100.00;101534.44;4934344;28;20134;-54
2020/12/19 02:08:31;;;;;;;45.42;19.63;;;;;;;0.47;100.00;101533.28;4933372;28;20126;-52
2020/12/19 02:10:58;;;;;;;49.45;20.20;;;;;;;0.40;99.95;101537.69;4933692;28;20391;-52
2020/12/19 02:13:24;;;;;;;43.97;18.58;;;;;;;0.27;100.00;101533.31;4934579;28;20125;-48
2020/12/19 02:15:50;;;;;;;46.92;19.73;;;;;;;0.35;100.00;101528.88;4930992;28;20048;-50
2020/12/19 02:18:17;;;;;;;51.65;20.20;;;;;;;0.38;100.00;101532.53;4929899;28;20054;-56
2020/12/19 02:20:43;;;;;;;47.15;20.05;;;;;;;0.25;100.00;101528.16;4932916;28;20058;-53
2020/12/19 02:23:10;;;;;;;47.28;19.77;;;;;;;0.19;100.00;101526.78;4935271;28;20122;-51
2020/12/19 02:25:37;;;;;;;47.08;18.70;;;;;;;0.20;100.00;101521.88;4932735;28;20047;-48
2020/12/19 02:28:06;;;;;;;49.30;18.33;;;;;;;0.24;100.00;101523.00;4933954;28;20083;-50
2020/12/19 02:30:37;;;;;;;45.25;19.38;;;;;;;0.15;100.00;101519.75;4933237;28;20055;-53
2020/12/19 02:33:04;;;;;;;48.60;18.70;;;;;;;0.23;100.00;101519.59;4934401;28;20511;-48
2020/12/19 02:35:30;;;;;;;43.45;18.48;;;;;;;0.12;100.00;101516.97;4933408;28;20047;-48
2020/12/19 02:38:00;;;;;;;44.85;19.15;;;;;;;-0.02;100.00;101511.69;4932974;28;20048;-49
2020/12/19 02:40:27;;;;;;;49.88;20.45;;;;;;;0.19;100.00;101511.69;4936622;28;20110;-51
2020/12/19 02:42:53;;;;;;;51.75;19.13;;;;;;;0.23;100.00;101508.63;4936917;28;20051;-51
2020/12/19 02:45:20;;;;;;;50.85;21.00;;;;;;;-0.08;100.00;101510.34;4939102;28;20138;-48
2020/12/19 02:47:47;;;;;;;46.28;19.38;;;;;;;-0.24;100.00;101512.34;4935916;28;20051;-50
2020/12/19 02:50:13;;;;;;;49.95;19.52;;;;;;;-0.13;100.00;101504.94;4937061;28;20157;-49
2020/12/19 02:52:39;;;;;;;49.80;19.83;;;;;;;0.10;100.00;101501.75;4936313;28;20044;-51
2020/12/19 02:55:06;;;;;;;51.10;18.70;;;;;;;0.08;100.00;101500.72;4938330;28;20047;-51
2020/12/19 02:57:32;;;;;;;47.67;20.02;;;;;;;0.21;100.00;101493.41;4936812;28;20052;-52
2020/12/19 02:59:59;;;;;;;41.42;18.75;;;;;;;0.27;100.00;101487.97;4937456;28;20510;-52
2020/12/19 03:02:25;;;;;;;48.00;20.58;;;;;;;0.05;100.00;101487.00;4938160;28;20190;-54
2020/12/19 03:04:51;;;;;;;43.72;19.45;;;;;;;0.18;100.00;101484.72;4936733;28;20122;-53
2020/12/19 03:07:18;;;;;;;49.78;19.75;;;;;;;0.06;100.00;101482.09;4938398;28;20083;-50
2020/12/19 03:09:44;;;;;;;47.70;19.00;;;;;;;0.04;100.00;101477.69;4936301;28;20060;-52
2020/12/19 03:12:11;;;;;;;51.67;22.02;;;;;;;0.13;100.00;101476.78;4938515;28;20075;-55
2020/12/19 03:14:38;;;;;;;49.35;20.50;;;;;;;0.08;100.00;101472.16;4931198;28;20051;-55
2020/12/19 03:17:04;;;;;;;50.55;19.80;;;;;;;0.14;100.00;101471.03;4937556;28;20079;-50
2020/12/19 03:19:31;;;;;;;44.70;19.15;;;;;;;0.14;100.00;101465.97;4936821;28;20042;-49
2020/12/19 03:21:57;;;;;;;49.03;20.30;;;;;;;-0.24;100.00;101462.88;4937091;28;20099;-50
2020/12/19 03:24:23;;;;;;;53.20;20.33;;;;;;;-0.21;100.00;101454.72;4938185;28;20047;-48
2020/12/19 03:26:50;;;;;;;51.50;19.17;;;;;;;-0.33;100.00;101457.97;4936200;28;20051;-49
2020/12/19 03:29:16;;;;;;;49.25;19.77;;;;;;;-0.21;100.00;101458.09;4933128;28;20146;-52
2020/12/19 03:31:43;;;;;;;56.13;19.52;;;;;;;-0.20;100.00;101456.47;4935866;28;20680;-52
2020/12/19 03:34:09;;;;;;;50.10;21.30;;;;;;;-0.18;100.00;101453.34;4937860;28;20048;-52
2020/12/19 03:36:42;;;;;;;47.55;19.17;;;;;;;-0.35;100.00;101454.47;4934674;28;20051;-51
2020/12/19 03:39:08;;;;;;;44.72;19.35;;;;;;;-0.19;100.00;101456.56;4937826;28;20056;-50
2020/12/19 03:41:34;;;;;;;48.22;19.33;;;;;;;-0.14;100.00;101454.44;4935938;28;20044;-53
2020/12/19 03:44:01;;;;;;;48.17;18.77;;;;;;;-0.26;100.00;101457.75;4936961;28;20110;-50
2020/12/19 03:46:27;;;;;;;52.15;19.48;;;;;;;-0.62;100.00;101464.78;4938177;28;20094;-53
2020/12/19 03:48:53;;;;;;;57.30;20.73;;;;;;;-0.31;100.00;101453.97;4936034;28;20056;-53
2020/12/19 03:51:20;;;;;;;52.20;19.80;;;;;;;-0.16;100.00;101450.94;4937385;28;20102;-55
2020/12/19 03:53:46;;;;;;;48.53;18.85;;;;;;;-0.44;100.00;101446.19;4935429;28;20055;-53
2020/12/19 03:56:13;;;;;;;49.85;19.90;;;;;;;-0.41;100.00;101453.97;4937376;28;20055;-54
2020/12/19 03:58:39;;;;;;;59.78;20.70;;;;;;;-0.59;100.00;101457.50;4935212;28;20391;-54
2020/12/19 04:01:06;;;;;;;53.03;20.13;;;;;;;-0.38;100.00;101448.31;4937157;28;20075;-54
2020/12/19 04:03:32;;;;;;;50.95;19.92;;;;;;;-0.61;100.00;101451.44;4936182;28;20058;-50
2020/12/19 04:05:59;;;;;;;50.50;19.27;;;;;;;-0.72;100.00;101442.16;4937930;28;20047;-54
2020/12/19 04:08:25;;;;;;;56.58;20.02;;;;;;;-0.87;100.00;101447.69;4936877;28;20046;-50
2020/12/19 04:10:51;;;;;;;66.22;20.00;;;;;;;-0.67;100.00;101438.38;4937276;28;20104;-53
2020/12/19 04:13:18;;;;;;;56.08;20.90;;;;;;;-0.47;100.00;101445.91;4937655;28;20043;-50
2020/12/19 04:15:45;;;;;;;56.35;19.65;;;;;;;-0.34;100.00;101435.22;4935019;28;20111;-53
2020/12/19 04:18:11;;;;;;;56.97;20.02;;;;;;;-0.56;100.00;101433.47;4937379;28;20485;-55
2020/12/19 04:20:37;;;;;;;59.45;21.17;;;;;;;-0.48;100.00;101436.63;4933564;28;20060;-51
2020/12/19 04:23:04;;;;;;;56.20;20.42;;;;;;;-0.61;100.00;101432.22;4936567;28;20047;-52
2020/12/19 04:25:30;;;;;;;55.05;19.45;;;;;;;-0.65;100.00;101431.84;4935556;28;20047;-56
2020/12/19 04:27:57;;;;;;;56.17;21.13;;;;;;;-0.53;100.00;101438.75;4935124;28;20051;-53
2020/12/19 04:30:23;;;;;;;52.78;21.75;;;;;;;-0.54;100.00;101438.63;4936998;28;20648;-50
2020/12/19 04:32:49;;;;;;;60.83;20.40;;;;;;;-0.46;100.00;101440.16;4934989;28;20628;-55
2020/12/19 04:35:16;;;;;;;59.20;19.52;;;;;;;-0.66;100.00;101435.09;4932004;28;20047;-54
2020/12/19 04:37:43;;;;;;;60.85;21.45;;;;;;;-0.70;100.00;101444.03;4934643;28;20102;-56
2020/12/19 04:40:09;;;;;;;54.38;19.85;;;;;;;-0.34;100.00;101442.78;4937070;28;20115;-48
2020/12/19 04:42:36;;;;;;;55.70;19.85;;;;;;;-0.02;100.00;101446.25;4934897;28;20058;-53
2020/12/19 04:45:06;;;;;;;54.10;19.30;;;;;;;-0.05;100.00;101448.53;4936129;28;20201;-57
2020/12/19 04:47:32;;;;;;;52.25;18.75;;;;;;;-0.02;100.00;101440.31;4935037;28;20573;-54
2020/12/19 04:49:59;;;;;;;52.40;20.75;;;;;;;-0.04;100.00;101447.75;4935628;28;20056;-51
2020/12/19 04:52:27;;;;;;;49.80;19.33;;;;;;;-0.20;100.00;101446.41;4936011;28;20071;-52
2020/12/19 04:54:54;;;;;;;51.38;19.00;;;;;;;0.20;100.00;101442.91;4935096;28;20604;-50
2020/12/19 04:57:21;;;;;;;54.20;20.38;;;;;;;-0.20;100.00;101442.25;4935974;28;20098;-52
2020/12/19 04:59:48;;;;;;;53.88;19.38;;;;;;;-0.16;100.00;101441.75;4934228;28;20047;-55
2020/12/19 05:02:16;;;;;;;49.35;18.95;;;;;;;0.01;100.00;101439.69;4936725;28;20063;-52
2020/12/19 05:04:42;;;;;;;51.88;20.45;;;;;;;0.11;100.00;101438.03;4933577;28;20510;-50
2020/12/19 05:07:13;;;;;;;51.92;19.70;;;;;;;-0.16;100.00;101439.22;4937277;28;20573;-49
2020/12/19 05:09:44;;;;;;;54.88;19.58;;;;;;;-0.03;100.00;101441.09;4933889;28;20055;-50
2020/12/19 05:12:12;;;;;;;48.50;17.90;;;;;;;-0.17;100.00;101439.09;4936714;28;20051;-51
2020/12/19 05:14:39;;;;;;;54.65;19.80;;;;;;;-0.46;100.00;101444.28;4932885;28;20059;-49
2020/12/19 05:17:06;;;;;;;49.60;18.65;;;;;;;-0.09;100.00;101446.53;4935386;28;20052;-51
2020/12/19 05:19:32;;;;;;;58.65;20.38;;;;;;;0.15;100.00;101450.09;4934453;28;20055;-50
2020/12/19 05:21:59;;;;;;;53.17;18.90;;;;;;;-0.08;100.00;101440.72;4934890;28;20478;-47
2020/12/19 05:24:30;;;;;;;45.38;19.33;;;;;;;-0.24;100.00;101439.34;4935265;28;20126;-50
2020/12/19 05:26:57;;;;;;;53.08;19.05;;;;;;;0.08;100.00;101437.78;4934002;28;20103;-50
2020/12/19 05:29:25;;;;;;;55.63;20.90;;;;;;;-0.03;100.00;101436.06;4935568;28;20055;-50
2020/12/19 05:31:59;;;;;;;56.75;21.90;;;;;;;0.08;100.00;101441.94;4933655;28;20047;-51
2020/12/19 05:34:27;;;;;;;50.67;18.92;;;;;;;0.23;100.00;101445.66;4934952;28;20062;-51
2020/12/19 05:36:55;;;;;;;56.78;21.10;;;;;;;0.30;100.00;101440.34;4934113;28;20048;-50
2020/12/19 05:39:22;;;;;;;53.33;19.27;;;;;;;0.33;100.00;101445.66;4935703;28;20526;-49
2020/12/19 05:41:50;;;;;;;50.65;19.83;;;;;;;0.27;100.00;101449.31;4930127;28;20051;-51
2020/12/19 05:44:21;;;;;;;51.03;19.73;;;;;;;0.35;100.00;101443.25;4931106;28;20054;-53
2020/12/19 05:46:48;;;;;;;53.53;20.73;;;;;;;0.19;100.00;101444.56;4933189;28;20055;-52
2020/12/19 05:49:16;;;;;;;52.53;21.17;;;;;;;0.17;100.00;101450.22;4936017;28;20142;-52
2020/12/19 05:51:43;;;;;;;58.00;21.85;;;;;;;0.09;100.00;101447.09;4933342;28;20051;-53
2020/12/19 05:54:14;;;;;;;53.50;21.23;;;;;;;0.16;100.00;101451.88;4935962;28;20047;-48
2020/12/19 05:56:43;;;;;;;51.17;20.00;;;;;;;0.10;100.00;101445.47;4932488;28;20048;-48
2020/12/19 05:59:12;;;;;;;54.25;19.77;;;;;;;0.31;100.00;101444.63;4935786;28;20070;-53
2020/12/19 06:01:44;;;;;;;49.13;20.13;;;;;;;0.28;100.00;101446.94;4931944;28;20126;-54
2020/12/19 06:04:13;;;;;;;53.78;20.08;;;;;;;0.12;100.00;101439.78;4935694;28;20055;-53
2020/12/19 06:06:44;;;;;;;53.28;20.80;;;;;;;-0.27;100.00;101447.56;4931897;28;20836;-54
2020/12/19 06:09:12;;;;;;;59.13;21.45;;;;;;;-0.32;100.00;101439.63;4935572;28;20674;-52
2020/12/19 06:11:45;;;;;;;55.13;22.17;;;;;;;0.09;100.00;101449.59;4932224;28;20051;-54
2020/12/19 06:14:17;;;;;;;57.72;22.38;;;;;;;-0.22;100.00;101446.28;4935579;28;20066;-54
2020/12/19 06:16:48;;;;;;;58.78;21.42;;;;;;;0.10;100.00;101440.44;4932605;28;20111;-51
2020/12/19 06:19:34;;;;;;;53.53;19.83;;;;;;;-0.06;100.00;101439.19;4935860;28;20485;-48
2020/12/19 06:22:01;;;;;;;53.63;20.60;;;;;;;0.14;100.00;101435.75;4932712;28;20403;-53
2020/12/19 06:24:41;;;;;;;56.22;20.45;;;;;;;-0.06;100.00;101438.31;4934402;28;20070;-49
2020/12/19 06:27:22;;;;;;;53.78;21.00;;;;;;;-0.06;100.00;101430.75;4935038;28;20103;-44
2020/12/19 06:29:50;;;;;;;53.88;20.48;;;;;;;0.37;100.00;101435.06;4929385;28;20053;-45
2020/12/19 06:32:22;;;;;;;54.55;22.02;;;;;;;0.48;100.00;101434.25;4930561;28;20047;-51
2020/12/19 06:35:01;;;;;;;61.22;22.02;;;;;;;-0.07;100.00;101434.91;4933324;28;20047;-48
2020/12/19 06:37:30;;;;;;;56.50;22.55;;;;;;;0.24;100.00;101429.81;4931588;28;20138;-46
2020/12/19 06:40:19;;;;;;;53.75;20.85;;;;;;;0.46;100.00;101427.31;4933682;28;20052;-47
2020/12/19 06:43:14;;;;;;;47.83;20.45;;;;;;;0.16;100.00;101439.28;4932861;28;20047;-44
2020/12/19 06:45:40;;;;;;;58.72;22.52;;;;;;;0.24;100.00;101444.94;4931629;28;20096;-45
2020/12/19 06:48:39;;;;;;;53.10;19.73;;;;;;;0.32;100.00;101442.97;4934667;28;20414;-48
2020/12/19 06:51:05;;;;;;;51.90;21.77;;;;;;;-0.08;100.00;101440.72;4906994;28;20040;-49
2020/12/19 06:53:33;;;;;;;49.40;20.75;;;;;;;0.35;100.00;101443.25;4930440;28;20055;-49
2020/12/19 06:55:59;;;;;;;54.67;21.63;;;;;;;0.25;100.00;101441.63;4933721;28;20581;-44
2020/12/19 06:58:33;;;;;;;55.10;21.70;;;;;;;0.32;100.00;101432.91;4933865;28;20413;-46
2020/12/19 07:01:21;;;;;;;54.60;21.42;;;;;;;0.57;100.00;101436.59;4933824;28;20506;-47
2020/12/19 07:03:48;;;;;;;57.92;22.02;;;;;;;0.27;100.00;101440.09;4929296;28;20051;-47
2020/12/19 07:06:15;;;;;;;52.10;21.50;;;;;;;0.39;100.00;101442.72;4934822;28;20513;-45
2020/12/19 07:08:50;;;;;;;57.10;21.80;;;;;;;0.44;100.00;101438.91;4928425;28;20055;-49
2020/12/19 07:11:40;;;;;;;52.03;22.55;;;;;;;0.33;100.00;101439.72;4929635;28;20684;-46
2020/12/19 07:14:14;;;;;;;57.60;21.92;;;;;;;0.23;100.00;101446.56;4933109;28;20048;-45
2020/12/19 07:16:47;;;;;;;58.28;21.73;;;;;;;0.49;100.00;101447.72;4931035;28;20102;-46
2020/12/19 07:19:27;;;;;;;55.08;22.08;;;;;;;0.63;100.00;101451.31;4934816;28;20194;-49
2020/12/19 07:21:58;;;;;;;52.60;21.65;;;;;;;0.57;100.00;101456.75;4929968;28;20114;-50
2020/12/19 07:24:25;;;;;;;55.30;22.67;;;;;;;0.64;100.00;101441.34;4929947;28;20067;-51
2020/12/19 07:26:52;;;;;;;53.33;21.52;;;;;;;0.61;100.00;101448.69;4929227;28;20063;-47
2020/12/19 07:29:22;;;;;;;55.13;21.17;;;;;;;0.63;100.00;101437.06;4934970;28;20043;-44
2020/12/19 07:31:53;;;;;;;57.65;22.25;;;;;;;0.38;100.00;101441.84;4932194;28;20399;-53
2020/12/19 07:34:21;;;;;;;51.22;21.88;;;;;;;0.57;100.00;101443.28;4931530;28;20505;-45
2020/12/19 07:36:51;;;;;;;51.42;21.27;;;;;;;0.44;100.00;101437.28;4932813;28;20107;-48
2020/12/19 07:39:19;;;;;;;52.17;23.48;;;;;;;0.31;100.00;101437.06;4927373;28;20055;-48
2020/12/19 07:42:09;;;;;;;54.85;20.70;;;;;;;0.52;100.00;101437.00;4931042;28;20062;-51
2020/12/19 07:44:37;;;;;;;54.65;22.52;;;;;;;0.45;100.00;101436.50;4932100;28;20047;-48
2020/12/19 07:47:11;;;;;;;53.45;20.80;;;;;;;0.60;100.00;101446.00;4935613;28;20047;-45
2020/12/19 07:49:47;;;;;;;51.40;21.90;;;;;;;0.67;100.00;101439.06;4935258;28;20060;-44
2020/12/19 07:52:25;;;;;;;54.50;21.98;;;;;;;0.31;100.00;101446.28;4937299;28;20051;-51
2020/12/19 07:54:54;;;;;;;55.90;21.90;;;;;;;0.32;100.00;101445.50;4932125;28;20094;-49
2020/12/19 07:57:21;;;;;;;46.63;20.13;;;;;;;0.17;100.00;101440.16;4934409;28;20051;-45
2020/12/19 07:59:48;;;;;;;56.33;21.02;;;;;;;0.03;100.00;101439.06;4932668;28;20051;-49
2020/12/19 08:02:16;;;;;;;50.95;20.90;;;;;;;0.25;100.00;101442.50;4937912;28;20055;-46
2020/12/19 08:04:51;;;;;;;46.65;21.38;;;;;;;0.70;100.00;101429.22;4939075;28;20661;-43
2020/12/19 08:07:19;;;;;;;50.58;21.15;;;;;;;0.34;100.00;101433.94;4930190;28;20105;-49
2020/12/19 08:09:46;;;;;;;52.85;21.75;;;;;;;0.49;100.00;101430.06;4935527;28;20113;-45
2020/12/19 08:12:13;;;;;;;58.03;21.95;;;;;;;0.88;100.00;101434.78;4938006;28;20051;-46
2020/12/19 08:14:41;;;;;;;52.95;23.05;;;;;;;0.57;100.00;101430.69;4935159;28;20048;-48
2020/12/19 08:17:14;;;;;;;52.30;21.25;;;;;;;0.54;100.00;101436.34;4936895;28;20122;-50
2020/12/19 08:19:46;;;;;;;57.55;24.45;;;;;;;0.37;100.00;101427.50;4933781;28;20518;-46
2020/12/19 08:22:14;;;;;;;55.80;22.77;;;;;;;0.55;100.00;101435.59;4936135;28;20552;-51
2020/12/19 08:24:57;;;;;;;58.75;23.25;;;;;;;0.41;100.00;101432.00;4932536;28;20058;-46
2020/12/19 08:27:45;;;;;;;54.45;21.85;;;;;;;1.03;100.00;101427.50;4933797;28;20060;-50
2020/12/19 08:30:16;;;;;;;50.88;21.42;;;;;;;0.85;100.00;101428.63;4933660;28;20502;-48
2020/12/19 08:32:45;;;;;;;52.78;21.83;;;;;;;1.11;100.00;101426.44;4931452;28;20134;-46
2020/12/19 08:35:28;;;;;;;49.90;21.65;;;;;;;1.21;100.00;101430.53;4936900;28;20059;-50
2020/12/19 08:38:13;;;;;;;45.17;20.20;;;;;;;1.49;100.00;101433.47;4928737;28;20067;-48
2020/12/19 08:40:47;;;;;;;40.35;19.10;;;;;;;1.72;100.00;101430.97;4932872;28;20106;-43
2020/12/19 08:43:19;;;;;;;43.05;19.00;;;;;;;1.56;100.00;101430.59;4931863;28;20050;-49
2020/12/19 08:45:49;;;;;;;44.45;20.17;;;;;;;1.76;100.00;101422.00;4933922;28;20059;-47
2020/12/19 08:48:24;;;;;;;43.72;19.83;;;;;;;2.00;100.00;101443.06;4929963;28;20061;-46
2020/12/19 08:50:54;;;;;;;38.17;19.35;;;;;;;1.90;99.83;101440.66;4922855;28;20047;-46
2020/12/19 08:53:22;;;;;;;35.65;17.90;;;;;;;2.24;98.40;101433.84;4929131;28;20055;-46
2020/12/19 08:55:50;;;;;;;38.45;18.98;;;;;;;2.51;98.21;101432.38;4924064;28;20484;-48
2020/12/19 08:58:30;;;;;;;37.80;18.50;;;;;;;2.92;97.22;101449.53;4920573;28;20051;-47
2020/12/19 09:01:14;;;;;;;28.35;15.65;;;;;;;3.72;95.40;101446.47;4922946;28;20055;-47
2020/12/19 09:03:41;;;;;;;26.98;15.68;;;;;;;4.52;88.83;101434.66;4927915;28;20130;-48
2020/12/19 09:06:10;;;;;;;23.45;13.48;;;;;;;5.70;82.38;101434.09;4929911;28;20056;-49
2020/12/19 09:08:38;;;;;;;22.58;13.35;;;;;;;6.27;80.60;101443.25;4929142;28;20044;-44
2020/12/19 09:11:08;;;;;;;22.70;13.50;;;;;;;6.56;76.47;101438.84;4929324;28;20051;-48
2020/12/19 09:13:36;;;;;;;22.13;12.80;;;;;;;7.82;72.25;101436.00;4928656;28;20132;-46
2020/12/19 09:16:10;;;;;;;18.88;12.18;;;;;;;8.68;66.70;101436.69;4927901;28;20059;-48
2020/12/19 09:18:38;;;;;;;19.48;12.50;;;;;;;8.95;64.70;101433.63;4926500;28;20470;-48
2020/12/19 09:21:07;;;;;;;19.67;12.07;;;;;;;9.56;63.49;101445.59;4927603;28;20056;-45
2020/12/19 09:23:35;;;;;;;18.42;11.80;;;;;;;9.55;63.37;101429.38;4927654;28;20054;-49
2020/12/19 09:26:04;;;;;;;19.45;11.95;;;;;;;10.02;61.50;101434.69;4928935;28;20056;-45
2020/12/19 09:28:31;;;;;;;20.02;12.10;;;;;;;10.96;58.52;101433.22;4927243;28;20071;-48
2020/12/19 09:30:58;;;;;;;19.15;12.15;;;;;;;8.83;64.54;101440.75;4927725;28;20055;-44
2020/12/19 09:33:25;;;;;;;20.40;12.70;;;;;;;7.18;71.99;101440.44;4927702;28;20126;-47
2020/12/19 09:35:53;;;;;;;19.95;13.80;;;;;;;6.96;71.47;101451.16;4928314;28;20459;-46
2020/12/19 09:38:20;;;;;;;24.83;15.07;;;;;;;5.22;80.28;101437.16;4925764;28;20060;-48
2020/12/19 09:40:47;;;;;;;26.08;14.73;;;;;;;5.59;79.15;101430.03;4927823;28;20055;-45
2020/12/19 09:43:15;;;;;;;21.88;13.48;;;;;;;5.74;80.28;101436.00;4927514;28;20417;-47
2020/12/19 09:45:42;;;;;;;23.02;13.98;;;;;;;5.28;81.50;101432.47;4927458;28;20189;-45
2020/12/19 09:48:09;;;;;;;22.38;13.20;;;;;;;5.40;80.98;101439.91;4927905;28;20630;-44
2020/12/19 09:50:35;;;;;;;24.75;14.13;;;;;;;5.08;83.01;101439.78;4927715;28;20060;-49
2020/12/19 09:53:02;;;;;;;24.30;13.77;;;;;;;5.41;80.79;101432.41;4923144;28;20060;-46
2020/12/19 09:55:28;;;;;;;23.75;13.82;;;;;;;4.90;84.09;101427.63;4926031;28;20047;-47
2020/12/19 09:57:55;;;;;;;23.08;13.82;;;;;;;4.96;83.50;101433.09;4927161;28;20056;-47
2020/12/19 10:00:22;;;;;;;22.30;13.68;;;;;;;4.86;84.47;101416.44;4927388;28;20134;-46
2020/12/19 10:02:50;;;;;;;25.20;14.63;;;;;;;4.52;85.39;101426.19;4924763;28;20111;-47
2020/12/19 10:05:17;;;;;;;24.63;14.75;;;;;;;5.48;82.84;101420.94;4927004;28;20599;-50
2020/12/19 10:07:43;;;;;;;22.42;13.98;;;;;;;6.05;79.18;101425.91;4927685;28;20052;-48
2020/12/19 10:10:10;;;;;;;20.83;13.43;;;;;;;5.73;80.49;101418.13;4927393;28;20134;-47
2020/12/19 10:12:37;;;;;;;21.45;12.75;;;;;;;6.79;76.50;101419.72;4928021;28;20051;-48
2020/12/19 10:15:06;;;;;;;20.35;12.02;;;;;;;6.48;76.17;101419.78;4927713;28;20112;-45
2020/12/19 10:17:32;;;;;;;21.40;12.82;;;;;;;6.21;78.83;101416.59;4925552;28;20074;-49
2020/12/19 10:19:59;;;;;;;20.63;12.68;;;;;;;6.20;77.60;101420.81;4924603;28;20054;-49
2020/12/19 10:22:30;;;;;;;20.88;13.52;;;;;;;5.83;80.13;101421.28;4928979;28;20047;-45
2020/12/19 10:24:59;;;;;;;19.17;12.50;;;;;;;6.44;78.21;101417.88;4928236;28;20126;-46
2020/12/19 10:27:25;;;;;;;21.45;12.43;;;;;;;6.44;78.89;101413.66;4925696;28;20075;-47
2020/12/19 10:29:51;;;;;;;21.15;12.18;;;;;;;6.27;78.44;101414.38;4930414;28;20067;-47
2020/12/19 10:32:18;;;;;;;19.08;12.20;;;;;;;5.93;79.93;101409.13;4925739;28;20059;-46
2020/12/19 10:34:44;;;;;;;20.92;13.15;;;;;;;5.55;81.33;101401.06;4927898;28;20074;-52
2020/12/19 10:37:11;;;;;;;20.48;12.90;;;;;;;5.59;81.69;101402.09;4922637;29;20058;-46
2020/12/19 10:39:38;;;;;;;20.25;12.48;;;;;;;5.49;82.80;101409.97;4927364;28;20063;-48
2020/12/19 10:42:04;;;;;;;19.52;12.07;;;;;;;5.66;82.92;101401.66;4929452;28;20474;-47
2020/12/19 10:44:31;;;;;;;20.75;12.88;;;;;;;5.15;84.26;101399.53;4930442;28;20059;-44
2020/12/19 10:46:58;;;;;;;21.48;13.25;;;;;;;5.14;85.29;101405.41;4932192;28;20527;-47
2020/12/19 10:49:25;;;;;;;20.80;11.95;;;;;;;5.35;83.97;101402.44;4932703;28;20047;-49
2020/12/19 10:51:52;;;;;;;21.08;12.10;;;;;;;5.61;82.99;101409.00;4931941;28;20150;-47
2020/12/19 10:54:19;;;;;;;19.52;11.82;;;;;;;5.61;83.07;101405.59;4927960;28;20051;-45
2020/12/19 10:56:54;;;;;;;20.15;11.45;;;;;;;5.54;83.38;101406.03;4926750;28;20123;-46
2020/12/19 10:59:21;;;;;;;19.85;11.55;;;;;;;5.63;82.75;101404.88;4934169;28;20051;-45
2020/12/19 11:01:48;;;;;;;19.52;11.25;;;;;;;5.56;82.69;101400.25;4931998;28;20075;-49
2020/12/19 11:04:16;;;;;;;17.33;11.18;;;;;;;5.64;82.66;101410.88;4935732;28;20133;-50
2020/12/19 11:06:43;;;;;;;18.55;10.48;;;;;;;5.83;81.86;101406.03;4932726;28;20054;-46
2020/12/19 11:09:13;;;;;;;18.23;10.27;;;;;;;5.62;82.86;101409.88;4936310;28;20071;-46
2020/12/19 11:11:40;;;;;;;17.85;11.32;;;;;;;5.73;82.98;101403.78;4933277;28;20055;-47
2020/12/19 11:14:06;;;;;;;19.58;11.10;;;;;;;5.51;84.76;101401.66;4937184;28;20051;-46
2020/12/19 11:16:33;;;;;;;16.80;10.88;;;;;;;5.97;83.10;101398.34;4935382;28;20059;-45